createdAt,value
2022-10-16T00:01:59.411Z,15.04
2022-10-16T00:04:26.002Z,15.03
2022-10-16T00:06:52.682Z,15.02
2022-10-16T00:09:19.219Z,15.00
2022-10-16T00:11:45.848Z,15.00
2022-10-16T00:14:14.835Z,14.98
2022-10-16T00:16:42.006Z,14.97
2022-10-16T00:19:08.639Z,14.97
2022-10-16T00:21:35.419Z,14.96
2022-10-16T00:24:09.270Z,14.94
2022-10-16T00:26:37.607Z,14.95
2022-10-16T00:29:05.268Z,14.94
2022-10-16T00:31:32.229Z,14.92
2022-10-16T00:33:59.059Z,14.92
2022-10-16T00:36:27.071Z,14.91
2022-10-16T00:41:32.695Z,14.90
2022-10-16T00:44:05.198Z,14.87
2022-10-16T00:46:39.701Z,14.85
2022-10-16T00:49:10.013Z,14.86
2022-10-16T00:51:42.731Z,14.82
2022-10-16T00:54:23.563Z,14.80
2022-10-16T00:56:51.302Z,14.83
2022-10-16T00:59:26.044Z,14.78
2022-10-16T01:01:54.113Z,14.80
2022-10-16T01:04:20.900Z,14.79
2022-10-16T01:06:58.660Z,14.76
2022-10-16T01:09:29.088Z,14.76
2022-10-16T01:12:15.819Z,14.72
2022-10-16T01:14:58.097Z,14.76
2022-10-16T01:17:41.576Z,14.71
2022-10-16T01:20:31.567Z,14.69
2022-10-16T01:23:17.298Z,14.68
2022-10-16T01:26:14.986Z,14.67
2022-10-16T01:29:09.245Z,14.65
2022-10-16T01:31:40.662Z,14.66
2022-10-16T01:34:15.431Z,14.64
2022-10-16T01:36:57.546Z,14.62
2022-10-16T01:39:29.731Z,14.65
2022-10-16T01:42:03.015Z,14.62
2022-10-16T01:44:33.802Z,14.61
2022-10-16T01:47:01.955Z,14.62
2022-10-16T01:49:32.244Z,14.62
2022-10-16T01:52:03.132Z,14.60
2022-10-16T01:54:33.129Z,14.60
2022-10-16T01:57:00.541Z,14.61
2022-10-16T01:59:31.983Z,14.59
2022-10-16T02:02:02.379Z,14.60
2022-10-16T02:04:35.915Z,14.58
2022-10-16T02:07:02.586Z,14.63
2022-10-16T02:09:31.351Z,14.62
2022-10-16T02:12:03.651Z,14.62
2022-10-16T02:14:30.517Z,14.65
2022-10-16T02:16:57.080Z,14.65
2022-10-16T02:19:23.749Z,14.66
2022-10-16T02:21:55.053Z,14.66
2022-10-16T02:24:27.656Z,14.65
2022-10-16T02:27:04.096Z,14.66
2022-10-16T02:29:31.929Z,14.69
2022-10-16T02:32:04.325Z,14.68
2022-10-16T02:34:34.254Z,14.70
2022-10-16T02:37:04.593Z,14.70
2022-10-16T02:39:32.035Z,14.72
2022-10-16T02:41:58.626Z,14.72
2022-10-16T02:44:25.289Z,14.72
2022-10-16T02:46:51.962Z,14.73
2022-10-16T02:49:19.104Z,14.73
2022-10-16T02:51:45.649Z,14.73
2022-10-16T02:54:12.157Z,14.76
2022-10-16T02:56:38.675Z,14.77
2022-10-16T02:59:05.302Z,14.78
2022-10-16T03:01:32.191Z,14.78
2022-10-16T03:03:58.828Z,14.80
2022-10-16T03:06:25.368Z,14.81
2022-10-16T03:08:51.925Z,14.83
2022-10-16T03:11:18.533Z,14.84
2022-10-16T03:13:45.181Z,14.86
2022-10-16T03:16:11.839Z,14.87
2022-10-16T03:18:38.495Z,14.90
2022-10-16T03:21:06.057Z,14.90
2022-10-16T03:23:32.715Z,14.92
2022-10-16T03:26:00.003Z,14.94
2022-10-16T03:28:26.671Z,14.95
2022-10-16T03:30:53.230Z,14.96
2022-10-16T03:33:19.792Z,14.96
2022-10-16T03:35:55.642Z,14.96
2022-10-16T03:38:22.788Z,14.98
2022-10-16T03:40:49.475Z,15.00
2022-10-16T03:43:16.256Z,15.01
2022-10-16T03:45:42.876Z,15.01
2022-10-16T03:48:09.425Z,15.01
2022-10-16T03:50:35.960Z,15.01
2022-10-16T03:53:02.541Z,15.02
2022-10-16T03:55:29.190Z,15.01
2022-10-16T03:57:55.738Z,15.01
2022-10-16T04:00:22.333Z,15.01
2022-10-16T04:02:48.902Z,15.02
2022-10-16T04:05:15.554Z,15.00
2022-10-16T04:07:42.115Z,15.01
2022-10-16T04:10:09.083Z,15.00
2022-10-16T04:12:35.639Z,14.98
2022-10-16T04:15:02.293Z,14.98
2022-10-16T04:17:29.356Z,14.97
2022-10-16T04:19:56.090Z,14.97
2022-10-16T04:22:22.691Z,14.96
2022-10-16T04:24:49.284Z,14.95
2022-10-16T04:27:15.825Z,14.95
2022-10-16T04:29:42.352Z,14.93
2022-10-16T04:32:10.009Z,14.92
2022-10-16T04:34:36.958Z,14.92
2022-10-16T04:37:03.510Z,14.92
2022-10-16T04:39:30.119Z,14.91
2022-10-16T04:41:56.636Z,14.91
2022-10-16T04:44:23.203Z,14.90
2022-10-16T04:46:52.144Z,14.89
2022-10-16T04:49:18.721Z,14.89
2022-10-16T04:51:45.214Z,14.89
2022-10-16T04:54:11.855Z,14.87
2022-10-16T04:56:44.272Z,14.86
2022-10-16T04:59:11.023Z,14.85
2022-10-16T05:01:37.574Z,14.84
2022-10-16T05:04:04.196Z,14.84
2022-10-16T05:06:30.808Z,14.82
2022-10-16T05:08:57.335Z,14.82
2022-10-16T05:11:23.881Z,14.82
2022-10-16T05:13:53.540Z,14.80
2022-10-16T05:16:22.348Z,14.79
2022-10-16T05:18:52.962Z,14.78
2022-10-16T05:21:19.977Z,14.77
2022-10-16T05:23:46.560Z,14.77
2022-10-16T05:26:13.206Z,14.73
2022-10-16T05:28:39.881Z,14.73
2022-10-16T05:31:08.241Z,14.71
2022-10-16T05:33:35.271Z,14.71
2022-10-16T05:36:04.125Z,14.70
2022-10-16T05:38:30.674Z,14.70
2022-10-16T05:40:57.635Z,14.69
2022-10-16T05:43:24.179Z,14.70
2022-10-16T05:45:58.956Z,14.66
2022-10-16T05:48:25.780Z,14.69
2022-10-16T05:51:13.457Z,14.65
2022-10-16T05:53:41.926Z,14.68
2022-10-16T05:56:11.502Z,14.68
2022-10-16T05:58:41.364Z,14.67
2022-10-16T06:01:14.509Z,14.65
2022-10-16T06:03:41.444Z,14.67
2022-10-16T06:06:12.349Z,14.66
2022-10-16T06:08:40.212Z,14.67
2022-10-16T06:11:09.529Z,14.64
2022-10-16T06:13:36.157Z,14.65
2022-10-16T06:16:04.314Z,14.64
2022-10-16T06:18:31.224Z,14.63
2022-10-16T06:20:58.857Z,14.62
2022-10-16T06:23:26.168Z,14.62
2022-10-16T06:25:52.828Z,14.60
2022-10-16T06:28:19.458Z,14.62
2022-10-16T06:30:46.767Z,14.60
2022-10-16T06:33:13.545Z,14.61
2022-10-16T06:35:40.157Z,14.61
2022-10-16T06:38:06.707Z,14.62
2022-10-16T06:40:33.267Z,14.63
2022-10-16T06:42:59.803Z,14.65
2022-10-16T06:45:26.359Z,14.64
2022-10-16T06:47:52.871Z,14.64
2022-10-16T06:50:19.453Z,14.65
2022-10-16T06:52:46.001Z,14.66
2022-10-16T06:55:12.542Z,14.66
2022-10-16T06:57:39.071Z,14.68
2022-10-16T07:00:06.556Z,14.68
2022-10-16T07:02:33.160Z,14.70
2022-10-16T07:04:59.770Z,14.70
2022-10-16T07:07:27.605Z,14.71
2022-10-16T07:09:54.237Z,14.72
2022-10-16T07:12:20.822Z,14.72
2022-10-16T07:14:47.415Z,14.73
2022-10-16T07:17:14.012Z,14.75
2022-10-16T07:19:40.569Z,14.73
2022-10-16T07:22:07.677Z,14.75
2022-10-16T07:24:34.295Z,14.75
2022-10-16T07:27:01.079Z,14.76
2022-10-16T07:29:27.677Z,14.78
2022-10-16T07:31:54.439Z,14.79
2022-10-16T07:34:23.155Z,14.79
2022-10-16T07:36:51.011Z,14.82
2022-10-16T07:39:18.524Z,14.84
2022-10-16T07:41:45.206Z,14.87
2022-10-16T07:44:11.854Z,14.90
2022-10-16T07:46:38.476Z,14.93
2022-10-16T07:49:05.125Z,14.97
2022-10-16T07:51:31.960Z,15.01
2022-10-16T07:53:58.565Z,15.03
2022-10-16T07:56:25.227Z,15.08
2022-10-16T07:58:52.530Z,15.12
2022-10-16T08:01:20.332Z,15.16
2022-10-16T08:03:52.145Z,15.18
2022-10-16T08:06:23.424Z,15.24
2022-10-16T08:08:53.482Z,15.30
2022-10-16T08:11:20.047Z,15.34
2022-10-16T08:13:46.636Z,15.39
2022-10-16T08:16:13.300Z,15.44
2022-10-16T08:18:41.187Z,15.48
2022-10-16T08:21:18.465Z,15.53
2022-10-16T08:23:50.090Z,15.60
2022-10-16T08:26:18.082Z,15.66
2022-10-16T08:28:44.646Z,15.72
2022-10-16T08:33:47.487Z,15.86
2022-10-16T08:36:15.431Z,15.93
2022-10-16T08:38:42.046Z,15.99
2022-10-16T08:41:14.593Z,16.03
2022-10-16T08:43:41.088Z,16.11
2022-10-16T08:46:16.805Z,16.17
2022-10-16T08:48:50.302Z,16.22
2022-10-16T08:51:24.945Z,16.27
2022-10-16T08:54:00.573Z,16.32
2022-10-16T08:56:27.651Z,16.40
2022-10-16T08:58:59.661Z,16.47
2022-10-16T09:01:51.664Z,16.52
2022-10-16T09:04:46.314Z,16.57
2022-10-16T09:07:36.699Z,16.64
2022-10-16T09:10:25.151Z,16.69
2022-10-16T09:13:16.809Z,16.75
2022-10-16T09:16:14.056Z,16.82
2022-10-16T09:18:48.616Z,16.88
2022-10-16T09:21:26.592Z,16.93
2022-10-16T09:23:58.128Z,17.02
2022-10-16T09:28:56.335Z,17.15
2022-10-16T09:31:24.217Z,17.23
2022-10-16T09:34:00.670Z,17.30
2022-10-16T09:36:29.155Z,17.41
2022-10-16T09:39:07.077Z,17.47
2022-10-16T09:41:37.558Z,17.57
2022-10-16T09:44:07.316Z,17.65
2022-10-16T09:46:37.000Z,17.70
2022-10-16T09:49:22.545Z,17.71
2022-10-16T09:51:49.297Z,17.79
2022-10-16T09:54:21.820Z,17.79
2022-10-16T09:56:55.415Z,17.80
2022-10-16T09:59:27.696Z,17.81
2022-10-16T10:01:56.281Z,17.84
2022-10-16T10:04:29.513Z,17.87
2022-10-16T10:06:58.029Z,17.94
2022-10-16T10:09:38.152Z,17.95
2022-10-16T10:12:06.543Z,18.03
2022-10-16T10:14:39.438Z,18.04
2022-10-16T10:17:05.965Z,18.13
2022-10-16T10:19:40.934Z,18.18
2022-10-16T10:22:24.603Z,18.27
2022-10-16T10:25:14.254Z,18.39
2022-10-16T10:28:17.737Z,18.54
2022-10-16T10:31:07.858Z,18.71
2022-10-16T10:33:53.100Z,18.91
2022-10-16T10:36:41.926Z,19.04
2022-10-16T10:39:37.143Z,19.15
2022-10-16T10:42:22.781Z,19.26
2022-10-16T10:45:07.983Z,19.35
2022-10-16T10:47:49.799Z,19.37
2022-10-16T10:50:44.100Z,19.39
2022-10-16T10:53:14.755Z,19.49
2022-10-16T10:56:01.183Z,19.55
2022-10-16T10:58:53.845Z,19.66
2022-10-16T11:01:38.759Z,19.77
2022-10-16T11:04:27.239Z,19.93
2022-10-16T11:07:01.231Z,20.11
2022-10-16T11:09:47.896Z,20.29
2022-10-16T11:12:33.242Z,20.53
2022-10-16T11:17:36.376Z,20.99
2022-10-16T11:20:26.948Z,21.24
2022-10-16T11:22:59.701Z,21.46
2022-10-16T11:25:31.313Z,21.59
2022-10-16T11:28:21.320Z,21.69
2022-10-16T11:31:17.313Z,22.10
2022-10-16T11:33:52.277Z,22.64
2022-10-16T11:36:35.864Z,23.30
2022-10-16T11:39:11.600Z,23.95
2022-10-16T11:41:52.379Z,24.58
2022-10-16T11:44:45.804Z,25.05
2022-10-16T11:50:18.212Z,25.32
2022-10-16T11:52:54.737Z,25.15
2022-10-16T11:55:25.685Z,24.88
2022-10-16T11:58:04.052Z,24.47
2022-10-16T12:00:48.703Z,24.02
2022-10-16T12:03:21.126Z,23.71
2022-10-16T12:06:02.536Z,23.55
2022-10-16T12:08:29.667Z,23.78
2022-10-16T12:11:21.103Z,24.18
2022-10-16T12:13:49.356Z,24.78
2022-10-16T12:16:15.943Z,25.36
2022-10-16T12:18:45.509Z,25.95
2022-10-16T12:21:16.707Z,26.50
2022-10-16T12:23:56.133Z,26.90
2022-10-16T12:26:28.782Z,27.15
2022-10-16T12:28:56.234Z,27.29
2022-10-16T12:31:24.377Z,27.54
2022-10-16T12:34:00.472Z,27.74
2022-10-16T12:36:35.745Z,28.04
2022-10-16T12:39:03.071Z,28.42
2022-10-16T12:41:29.535Z,28.75
2022-10-16T12:43:56.802Z,29.04
2022-10-16T12:46:36.177Z,29.27
2022-10-16T12:49:13.527Z,29.37
2022-10-16T12:51:41.596Z,29.33
2022-10-16T12:54:08.092Z,29.11
2022-10-16T12:56:48.270Z,28.71
2022-10-16T12:59:23.915Z,28.23
2022-10-16T13:02:02.308Z,27.69
2022-10-16T13:04:38.308Z,27.17
2022-10-16T13:07:18.135Z,26.54
2022-10-16T13:10:02.159Z,26.02
2022-10-16T13:12:56.831Z,25.55
2022-10-16T13:15:49.870Z,25.18
2022-10-16T13:18:35.054Z,24.88
2022-10-16T13:21:20.329Z,24.51
2022-10-16T13:23:55.909Z,24.31
2022-10-16T13:26:42.836Z,24.08
2022-10-16T13:29:10.261Z,23.98
2022-10-16T13:31:40.078Z,23.84
2022-10-16T13:34:12.371Z,23.72
2022-10-16T13:36:53.627Z,23.61
2022-10-16T13:39:24.977Z,23.58
2022-10-16T13:42:16.358Z,23.52
2022-10-16T13:44:47.051Z,23.58
2022-10-16T13:47:28.293Z,23.61
2022-10-16T13:50:10.440Z,23.73
2022-10-16T13:52:38.197Z,24.01
2022-10-16T13:55:15.791Z,24.33
2022-10-16T13:57:43.582Z,24.82
2022-10-16T14:00:25.319Z,25.26
2022-10-16T14:02:59.856Z,25.71
2022-10-16T14:05:26.617Z,26.21
2022-10-16T14:07:55.371Z,26.74
2022-10-16T14:10:32.165Z,27.35
2022-10-16T14:13:09.403Z,27.99
2022-10-16T14:15:37.585Z,28.50
2022-10-16T14:18:05.159Z,28.92
2022-10-16T14:20:34.639Z,29.29
2022-10-16T14:23:19.670Z,29.64
2022-10-16T14:25:46.231Z,29.95
2022-10-16T14:28:23.862Z,30.13
2022-10-16T14:30:52.102Z,30.41
2022-10-16T14:33:34.515Z,30.65
2022-10-16T14:36:12.078Z,30.94
2022-10-16T14:38:40.389Z,31.22
2022-10-16T14:41:07.997Z,31.44
2022-10-16T14:43:40.338Z,31.65
2022-10-16T14:46:14.623Z,31.87
2022-10-16T14:48:43.645Z,32.10
2022-10-16T14:51:15.844Z,32.23
2022-10-16T14:53:42.639Z,32.30
2022-10-16T14:56:15.543Z,32.22
2022-10-16T14:58:42.386Z,32.06
2022-10-16T15:01:11.988Z,31.89
2022-10-16T15:03:39.362Z,31.76
2022-10-16T15:06:11.812Z,31.50
2022-10-16T15:08:38.726Z,31.22
2022-10-16T15:11:05.553Z,30.79
2022-10-16T15:13:32.118Z,30.28
2022-10-16T15:15:59.226Z,29.70
2022-10-16T15:18:26.083Z,29.14
2022-10-16T15:20:53.332Z,28.56
2022-10-16T15:23:22.501Z,27.96
2022-10-16T15:25:53.715Z,27.40
2022-10-16T15:28:21.244Z,26.87
2022-10-16T15:30:50.867Z,26.37
2022-10-16T15:33:28.463Z,25.91
2022-10-16T15:35:55.956Z,25.57
2022-10-16T15:38:23.786Z,25.20
2022-10-16T15:40:50.943Z,24.86
2022-10-16T15:43:17.892Z,24.54
2022-10-16T15:45:44.517Z,24.23
2022-10-16T15:48:14.799Z,23.92
2022-10-16T15:50:42.053Z,23.72
2022-10-16T15:53:08.614Z,23.51
2022-10-16T15:55:35.344Z,23.29
2022-10-16T15:58:01.876Z,23.12
2022-10-16T16:00:28.469Z,22.94
2022-10-16T16:02:55.595Z,22.79
2022-10-16T16:05:23.265Z,22.66
2022-10-16T16:07:50.571Z,22.54
2022-10-16T16:10:18.122Z,22.44
2022-10-16T16:12:50.794Z,22.29
2022-10-16T16:15:17.802Z,22.18
2022-10-16T16:17:45.139Z,22.05
2022-10-16T16:20:12.430Z,21.91
2022-10-16T16:22:39.054Z,21.78
2022-10-16T16:25:06.110Z,21.64
2022-10-16T16:27:34.614Z,21.52
2022-10-16T16:30:04.636Z,21.38
2022-10-16T16:32:31.570Z,21.26
2022-10-16T16:34:58.157Z,21.14
2022-10-16T16:37:24.979Z,21.02
2022-10-16T16:39:52.136Z,20.90
2022-10-16T16:42:18.855Z,20.81
2022-10-16T16:44:45.419Z,20.70
2022-10-16T16:47:12.080Z,20.61
2022-10-16T16:49:38.676Z,20.51
2022-10-16T16:52:05.246Z,20.44
2022-10-16T16:54:31.849Z,20.37
2022-10-16T16:56:58.429Z,20.32
2022-10-16T16:59:25.032Z,20.26
2022-10-16T17:01:56.640Z,20.20
2022-10-16T17:04:23.784Z,20.14
2022-10-16T17:06:50.354Z,20.08
2022-10-16T17:09:17.571Z,20.02
2022-10-16T17:11:45.633Z,19.97
2022-10-16T17:14:12.702Z,19.92
2022-10-16T17:16:40.263Z,19.85
2022-10-16T17:19:09.494Z,19.80
2022-10-16T17:21:36.460Z,19.77
2022-10-16T17:24:03.955Z,19.75
2022-10-16T17:26:31.277Z,19.74
2022-10-16T17:29:00.759Z,19.74
2022-10-16T17:31:31.462Z,19.72
2022-10-16T17:33:59.894Z,19.73
2022-10-16T17:36:29.739Z,19.70
2022-10-16T17:39:04.736Z,19.66
2022-10-16T17:41:32.885Z,19.62
2022-10-16T17:43:59.643Z,19.58
2022-10-16T17:46:27.119Z,19.53
2022-10-16T17:48:55.272Z,19.51
2022-10-16T17:51:25.598Z,19.46
2022-10-16T17:53:54.644Z,19.44
2022-10-16T17:56:22.329Z,19.40
2022-10-16T17:58:54.180Z,19.35
2022-10-16T18:01:29.982Z,19.31
2022-10-16T18:04:02.543Z,19.26
2022-10-16T18:06:29.624Z,19.26
2022-10-16T18:08:58.045Z,19.24
2022-10-16T18:11:24.910Z,19.24
2022-10-16T18:13:59.111Z,19.19
2022-10-16T18:16:28.361Z,19.20
2022-10-16T18:18:57.134Z,19.19
2022-10-16T18:21:27.486Z,19.17
2022-10-16T18:23:54.648Z,19.16
2022-10-16T18:26:21.636Z,19.11
2022-10-16T18:28:49.132Z,19.08
2022-10-16T18:31:17.433Z,19.04
2022-10-16T18:33:50.700Z,19.00
2022-10-16T18:36:20.765Z,18.98
2022-10-16T18:38:47.820Z,18.95
2022-10-16T18:41:14.381Z,18.92
2022-10-16T18:43:41.018Z,18.91
2022-10-16T18:46:12.929Z,18.88
2022-10-16T18:48:40.476Z,18.87
2022-10-16T18:51:11.352Z,18.83
2022-10-16T18:53:39.887Z,18.81
2022-10-16T18:56:07.249Z,18.78
2022-10-16T18:58:35.468Z,18.73
2022-10-16T19:01:07.010Z,18.69
2022-10-16T19:03:34.156Z,18.69
2022-10-16T19:06:06.985Z,18.65
2022-10-16T19:08:33.999Z,18.66
2022-10-16T19:11:12.859Z,18.60
2022-10-16T19:13:39.707Z,18.64
2022-10-16T19:16:30.861Z,18.59
2022-10-16T19:18:59.140Z,18.59
2022-10-16T19:21:27.646Z,18.57
2022-10-16T19:23:56.579Z,18.57
2022-10-16T19:26:23.881Z,18.55
2022-10-16T19:28:51.841Z,18.53
2022-10-16T19:31:20.802Z,18.51
2022-10-16T19:33:47.831Z,18.51
2022-10-16T19:36:20.249Z,18.46
2022-10-16T19:38:47.194Z,18.46
2022-10-16T19:41:18.496Z,18.42
2022-10-16T19:43:45.864Z,18.44
2022-10-16T19:46:18.621Z,18.41
2022-10-16T19:48:45.833Z,18.43
2022-10-16T19:51:15.136Z,18.41
2022-10-16T19:53:41.758Z,18.41
2022-10-16T19:56:17.379Z,18.39
2022-10-16T19:58:45.235Z,18.43
2022-10-16T20:01:13.170Z,18.44
2022-10-16T20:03:40.483Z,18.46
2022-10-16T20:06:08.518Z,18.46
2022-10-16T20:08:36.998Z,18.48
2022-10-16T20:11:05.030Z,18.50
2022-10-16T20:13:32.497Z,18.51
2022-10-16T20:15:59.416Z,18.52
2022-10-16T20:18:26.111Z,18.53
2022-10-16T20:20:52.730Z,18.54
2022-10-16T20:23:19.923Z,18.55
2022-10-16T20:25:47.624Z,18.56
2022-10-16T20:28:17.578Z,18.57
2022-10-16T20:30:45.878Z,18.60
2022-10-16T20:33:13.332Z,18.61
2022-10-16T20:35:42.388Z,18.63
2022-10-16T20:38:10.133Z,18.65
2022-10-16T20:40:38.337Z,18.66
2022-10-16T20:43:05.696Z,18.66
2022-10-16T20:45:32.781Z,18.66
2022-10-16T20:47:59.670Z,18.64
2022-10-16T20:50:32.636Z,18.59
2022-10-16T20:52:59.973Z,18.56
2022-10-16T20:55:27.523Z,18.51
2022-10-16T20:57:54.332Z,18.45
2022-10-16T21:00:21.766Z,18.39
2022-10-16T21:02:52.538Z,18.32
2022-10-16T21:05:20.015Z,18.29
2022-10-16T21:07:46.751Z,18.25
2022-10-16T21:10:13.537Z,18.23
2022-10-16T21:12:40.168Z,18.21
2022-10-16T21:15:14.947Z,18.18
2022-10-16T21:17:42.105Z,18.16
2022-10-16T21:20:08.918Z,18.13
2022-10-16T21:22:35.660Z,18.13
2022-10-16T21:25:02.279Z,18.09
2022-10-16T21:27:28.890Z,18.07
2022-10-16T21:29:55.446Z,18.06
2022-10-16T21:32:22.201Z,18.04
2022-10-16T21:34:48.774Z,18.02
2022-10-16T21:37:15.385Z,18.01
2022-10-16T21:39:41.962Z,18.00
2022-10-16T21:42:08.586Z,17.98
2022-10-16T21:44:35.252Z,17.96
2022-10-16T21:47:01.868Z,17.95
2022-10-16T21:49:28.418Z,17.93
2022-10-16T21:51:55.261Z,17.92
2022-10-16T21:54:24.168Z,17.89
2022-10-16T21:56:50.927Z,17.87
2022-10-16T21:59:17.767Z,17.84
2022-10-16T22:01:44.593Z,17.81
2022-10-16T22:04:16.522Z,17.77
2022-10-16T22:06:44.208Z,17.76
2022-10-16T22:09:14.801Z,17.73
2022-10-16T22:11:43.788Z,17.69
2022-10-16T22:14:16.482Z,17.66
2022-10-16T22:16:44.141Z,17.65
2022-10-16T22:19:12.182Z,17.63
2022-10-16T22:21:40.739Z,17.62
2022-10-16T22:24:08.456Z,17.60
2022-10-16T22:26:36.267Z,17.58
2022-10-16T22:29:03.396Z,17.55
2022-10-16T22:31:30.317Z,17.52
2022-10-16T22:33:59.127Z,17.49
2022-10-16T22:36:26.866Z,17.47
2022-10-16T22:38:54.440Z,17.43
2022-10-16T22:41:21.910Z,17.40
2022-10-16T22:43:49.502Z,17.36
2022-10-16T22:46:27.248Z,17.30
2022-10-16T22:48:55.965Z,17.30
2022-10-16T22:51:23.908Z,17.28
2022-10-16T22:53:50.768Z,17.24
2022-10-16T22:56:19.751Z,17.21
2022-10-16T22:58:46.393Z,17.17
2022-10-16T23:01:20.292Z,17.11
2022-10-16T23:03:47.049Z,17.11
2022-10-16T23:06:13.956Z,17.09
2022-10-16T23:08:40.652Z,17.09
2022-10-16T23:11:09.335Z,17.07
2022-10-16T23:13:37.645Z,17.06
2022-10-16T23:16:05.546Z,17.06
2022-10-16T23:18:35.770Z,17.03
2022-10-16T23:21:06.681Z,17.01
2022-10-16T23:23:35.229Z,17.01
2022-10-16T23:26:01.857Z,17.01
2022-10-16T23:28:28.523Z,16.99
2022-10-16T23:30:55.169Z,16.99
2022-10-16T23:33:21.706Z,16.98
2022-10-16T23:35:48.439Z,16.98
2022-10-16T23:38:15.180Z,16.99
2022-10-16T23:40:41.737Z,16.98
2022-10-16T23:43:08.499Z,16.99
2022-10-16T23:45:35.059Z,16.98
2022-10-16T23:48:01.664Z,16.97
2022-10-16T23:50:30.435Z,16.97
2022-10-16T23:52:57.050Z,16.96
2022-10-16T23:55:23.681Z,16.96
2022-10-16T23:57:50.299Z,16.96
